sensor_id;sensor_type;location;lat;lon;timestamp;pressure;altitude;pressure_sealevel;temperature;humidity
4767;BME280;2397;53.576;9.746;2024-03-29T00:00:43;99360.06;;;6.89;100.00
4767;BME280;2397;53.576;9.746;2024-03-29T00:03:11;99365.47;;;6.80;100.00
4767;BME280;2397;53.576;9.746;2024-03-29T00:05:37;99360.84;;;6.74;100.00
4767;BME280;2397;53.576;9.746;2024-03-29T00:08:03;99351.50;;;6.71;100.00
4767;BME280;2397;53.576;9.746;2024-03-29T00:10:29;99348.41;;;6.76;100.00
4767;BME280;2397;53.576;9.746;2024-03-29T00:12:55;99351.03;;;6.68;100.00
4767;BME280;2397;53.576;9.746;2024-03-29T00:15:20;99352.00;;;6.75;100.00
4767;BME280;2397;53.576;9.746;2024-03-29T00:17:46;99355.91;;;6.71;100.00
4767;BME280;2397;53.576;9.746;2024-03-29T00:20:12;99351.81;;;6.68;100.00
4767;BME280;2397;53.576;9.746;2024-03-29T00:22:38;99353.66;;;6.68;100.00
4767;BME280;2397;53.576;9.746;2024-03-29T00:25:04;99351.34;;;6.65;100.00
4767;BME280;2397;53.576;9.746;2024-03-29T00:27:30;99356.06;;;6.61;100.00
4767;BME280;2397;53.576;9.746;2024-03-29T00:29:56;99351.63;;;6.54;100.00
4767;BME280;2397;53.576;9.746;2024-03-29T00:32:22;99350.00;;;6.53;100.00
4767;BME280;2397;53.576;9.746;2024-03-29T00:34:52;99347.38;;;6.53;100.00
4767;BME280;2397;53.576;9.746;2024-03-29T00:37:18;99352.28;;;6.56;100.00
4767;BME280;2397;53.576;9.746;2024-03-29T00:39:44;99347.69;;;6.50;100.00
4767;BME280;2397;53.576;9.746;2024-03-29T00:42:10;99346.38;;;6.46;100.00
4767;BME280;2397;53.576;9.746;2024-03-29T00:44:41;99351.75;;;6.44;100.00
4767;BME280;2397;53.576;9.746;2024-03-29T00:47:08;99352.53;;;6.37;100.00
4767;BME280;2397;53.576;9.746;2024-03-29T00:49:33;99348.59;;;6.33;100.00
4767;BME280;2397;53.576;9.746;2024-03-29T00:51:59;99344.03;;;6.35;100.00
4767;BME280;2397;53.576;9.746;2024-03-29T00:54:25;99356.00;;;6.37;100.00
4767;BME280;2397;53.576;9.746;2024-03-29T00:56:51;99356.78;;;6.38;100.00
4767;BME280;2397;53.576;9.746;2024-03-29T00:59:18;99346.28;;;6.30;100.00
4767;BME280;2397;53.576;9.746;2024-03-29T01:01:43;99345.34;;;6.39;100.00
4767;BME280;2397;53.576;9.746;2024-03-29T01:04:10;99349.59;;;6.32;100.00
4767;BME280;2397;53.576;9.746;2024-03-29T01:06:37;99344.34;;;6.32;100.00
4767;BME280;2397;53.576;9.746;2024-03-29T01:09:02;99351.19;;;6.25;100.00
4767;BME280;2397;53.576;9.746;2024-03-29T01:11:29;99350.38;;;6.32;100.00
4767;BME280;2397;53.576;9.746;2024-03-29T01:13:56;99346.97;;;6.32;100.00
4767;BME280;2397;53.576;9.746;2024-03-29T01:16:22;99362.41;;;6.43;100.00
4767;BME280;2397;53.576;9.746;2024-03-29T01:18:47;99355.88;;;6.47;100.00
4767;BME280;2397;53.576;9.746;2024-03-29T01:21:13;99341.47;;;6.51;100.00
4767;BME280;2397;53.576;9.746;2024-03-29T01:23:39;99344.84;;;6.35;100.00
4767;BME280;2397;53.576;9.746;2024-03-29T01:26:08;99355.31;;;6.35;100.00
4767;BME280;2397;53.576;9.746;2024-03-29T01:28:34;99353.88;;;6.41;100.00
4767;BME280;2397;53.576;9.746;2024-03-29T01:31:00;99350.44;;;6.40;100.00
4767;BME280;2397;53.576;9.746;2024-03-29T01:33:26;99349.63;;;6.40;100.00
4767;BME280;2397;53.576;9.746;2024-03-29T01:35:52;99347.81;;;6.40;100.00
4767;BME280;2397;53.576;9.746;2024-03-29T01:38:18;99357.44;;;6.32;100.00
4767;BME280;2397;53.576;9.746;2024-03-29T01:40:44;99350.72;;;6.29;100.00
4767;BME280;2397;53.576;9.746;2024-03-29T01:43:10;99353.69;;;6.34;100.00
4767;BME280;2397;53.576;9.746;2024-03-29T01:45:38;99353.50;;;6.28;100.00
4767;BME280;2397;53.576;9.746;2024-03-29T01:48:08;99358.16;;;6.42;100.00
4767;BME280;2397;53.576;9.746;2024-03-29T01:50:36;99359.09;;;6.41;100.00
4767;BME280;2397;53.576;9.746;2024-03-29T01:53:05;99356.47;;;6.33;100.00
4767;BME280;2397;53.576;9.746;2024-03-29T01:55:31;99354.03;;;6.39;100.00
4767;BME280;2397;53.576;9.746;2024-03-29T01:57:57;99347.75;;;6.24;100.00
4767;BME280;2397;53.576;9.746;2024-03-29T02:00:24;99360.31;;;6.13;100.00
4767;BME280;2397;53.576;9.746;2024-03-29T02:02:52;99350.13;;;6.10;100.00
4767;BME280;2397;53.576;9.746;2024-03-29T02:05:17;99354.69;;;6.08;100.00
4767;BME280;2397;53.576;9.746;2024-03-29T02:07:45;99352.44;;;6.13;100.00
4767;BME280;2397;53.576;9.746;2024-03-29T02:10:14;99350.78;;;6.12;100.00
4767;BME280;2397;53.576;9.746;2024-03-29T02:12:40;99358.00;;;6.10;100.00
4767;BME280;2397;53.576;9.746;2024-03-29T02:15:05;99358.03;;;6.18;100.00
4767;BME280;2397;53.576;9.746;2024-03-29T02:17:32;99355.75;;;6.23;100.00
4767;BME280;2397;53.576;9.746;2024-03-29T02:19:58;99364.09;;;6.18;100.00
4767;BME280;2397;53.576;9.746;2024-03-29T02:22:24;99361.94;;;6.14;100.00
4767;BME280;2397;53.576;9.746;2024-03-29T02:24:51;99368.81;;;6.15;100.00
4767;BME280;2397;53.576;9.746;2024-03-29T02:27:17;99368.31;;;6.11;100.00
4767;BME280;2397;53.576;9.746;2024-03-29T02:29:43;99376.31;;;6.10;100.00
4767;BME280;2397;53.576;9.746;2024-03-29T02:32:08;99375.66;;;6.08;100.00
4767;BME280;2397;53.576;9.746;2024-03-29T02:34:34;99377.31;;;6.09;100.00
4767;BME280;2397;53.576;9.746;2024-03-29T02:36:59;99372.00;;;6.01;100.00
4767;BME280;2397;53.576;9.746;2024-03-29T02:39:25;99378.75;;;6.03;100.00
4767;BME280;2397;53.576;9.746;2024-03-29T02:41:51;99383.16;;;6.03;100.00
4767;BME280;2397;53.576;9.746;2024-03-29T02:44:17;99385.75;;;5.95;100.00
4767;BME280;2397;53.576;9.746;2024-03-29T02:46:42;99390.66;;;5.98;100.00
4767;BME280;2397;53.576;9.746;2024-03-29T02:49:08;99385.34;;;5.90;100.00
4767;BME280;2397;53.576;9.746;2024-03-29T02:51:35;99383.47;;;6.00;100.00
4767;BME280;2397;53.576;9.746;2024-03-29T02:54:01;99380.88;;;6.08;100.00
4767;BME280;2397;53.576;9.746;2024-03-29T02:56:27;99371.34;;;5.99;100.00
4767;BME280;2397;53.576;9.746;2024-03-29T02:58:53;99373.09;;;5.90;100.00
4767;BME280;2397;53.576;9.746;2024-03-29T03:01:18;99378.00;;;5.85;100.00
4767;BME280;2397;53.576;9.746;2024-03-29T03:03:44;99369.31;;;5.85;100.00
4767;BME280;2397;53.576;9.746;2024-03-29T03:06:09;99371.78;;;5.69;100.00
4767;BME280;2397;53.576;9.746;2024-03-29T03:08:35;99378.31;;;5.65;100.00
4767;BME280;2397;53.576;9.746;2024-03-29T03:11:19;99372.41;;;5.63;100.00
4767;BME280;2397;53.576;9.746;2024-03-29T03:13:45;99353.13;;;5.46;100.00
4767;BME280;2397;53.576;9.746;2024-03-29T03:16:11;99354.78;;;5.47;100.00
4767;BME280;2397;53.576;9.746;2024-03-29T03:18:36;99355.53;;;5.40;100.00
4767;BME280;2397;53.576;9.746;2024-03-29T03:21:02;99345.09;;;5.40;100.00
4767;BME280;2397;53.576;9.746;2024-03-29T03:23:28;99337.31;;;5.30;100.00
4767;BME280;2397;53.576;9.746;2024-03-29T03:25:58;99326.09;;;5.38;100.00
4767;BME280;2397;53.576;9.746;2024-03-29T03:28:24;99338.22;;;5.39;100.00
4767;BME280;2397;53.576;9.746;2024-03-29T03:30:51;99334.75;;;5.38;100.00
4767;BME280;2397;53.576;9.746;2024-03-29T03:33:17;99338.50;;;5.36;100.00
4767;BME280;2397;53.576;9.746;2024-03-29T03:35:43;99346.06;;;5.39;100.00
4767;BME280;2397;53.576;9.746;2024-03-29T03:38:09;99343.75;;;5.36;100.00
4767;BME280;2397;53.576;9.746;2024-03-29T03:40:35;99351.75;;;5.34;100.00
4767;BME280;2397;53.576;9.746;2024-03-29T03:43:02;99353.81;;;5.31;100.00
4767;BME280;2397;53.576;9.746;2024-03-29T03:45:27;99360.88;;;5.30;100.00
4767;BME280;2397;53.576;9.746;2024-03-29T03:47:53;99361.53;;;5.32;100.00
4767;BME280;2397;53.576;9.746;2024-03-29T03:50:19;99366.22;;;5.46;100.00
4767;BME280;2397;53.576;9.746;2024-03-29T03:52:44;99373.41;;;5.44;100.00
4767;BME280;2397;53.576;9.746;2024-03-29T03:55:10;99372.59;;;5.44;100.00
4767;BME280;2397;53.576;9.746;2024-03-29T03:57:36;99368.00;;;5.46;100.00
4767;BME280;2397;53.576;9.746;2024-03-29T04:00:01;99362.72;;;5.38;100.00
4767;BME280;2397;53.576;9.746;2024-03-29T04:02:37;99358.47;;;5.37;100.00
4767;BME280;2397;53.576;9.746;2024-03-29T04:05:03;99372.81;;;5.33;100.00
4767;BME280;2397;53.576;9.746;2024-03-29T04:07:28;99379.75;;;5.42;100.00
4767;BME280;2397;53.576;9.746;2024-03-29T04:09:54;99374.91;;;5.47;100.00
4767;BME280;2397;53.576;9.746;2024-03-29T04:12:19;99374.91;;;5.47;100.00
4767;BME280;2397;53.576;9.746;2024-03-29T04:14:45;99390.59;;;5.47;100.00
4767;BME280;2397;53.576;9.746;2024-03-29T04:17:11;99373.09;;;5.47;100.00
4767;BME280;2397;53.576;9.746;2024-03-29T04:19:37;99370.94;;;5.43;100.00
4767;BME280;2397;53.576;9.746;2024-03-29T04:22:02;99368.78;;;5.64;100.00
4767;BME280;2397;53.576;9.746;2024-03-29T04:24:28;99370.47;;;5.65;100.00
4767;BME280;2397;53.576;9.746;2024-03-29T04:26:54;99369.81;;;5.71;100.00
4767;BME280;2397;53.576;9.746;2024-03-29T04:29:19;99370.47;;;5.65;100.00
4767;BME280;2397;53.576;9.746;2024-03-29T04:31:45;99361.03;;;5.72;100.00
4767;BME280;2397;53.576;9.746;2024-03-29T04:34:11;99359.75;;;5.76;100.00
4767;BME280;2397;53.576;9.746;2024-03-29T04:36:37;99360.94;;;5.81;100.00
4767;BME280;2397;53.576;9.746;2024-03-29T04:39:02;99363.69;;;5.80;100.00
4767;BME280;2397;53.576;9.746;2024-03-29T04:41:28;99365.13;;;5.74;100.00
4767;BME280;2397;53.576;9.746;2024-03-29T04:43:54;99360.38;;;5.78;100.00
4767;BME280;2397;53.576;9.746;2024-03-29T04:46:19;99370.38;;;6.00;100.00
4767;BME280;2397;53.576;9.746;2024-03-29T04:48:45;99372.59;;;5.87;100.00
4767;BME280;2397;53.576;9.746;2024-03-29T04:51:11;99378.63;;;5.87;100.00
4767;BME280;2397;53.576;9.746;2024-03-29T04:53:41;99389.66;;;5.91;100.00
4767;BME280;2397;53.576;9.746;2024-03-29T04:56:07;99386.38;;;5.97;100.00
4767;BME280;2397;53.576;9.746;2024-03-29T04:58:32;99391.94;;;5.94;100.00
4767;BME280;2397;53.576;9.746;2024-03-29T05:00:59;99384.41;;;5.91;100.00
4767;BME280;2397;53.576;9.746;2024-03-29T05:03:25;99388.56;;;6.01;100.00
4767;BME280;2397;53.576;9.746;2024-03-29T05:05:51;99392.50;;;6.05;100.00
4767;BME280;2397;53.576;9.746;2024-03-29T05:08:17;99406.28;;;6.07;100.00
4767;BME280;2397;53.576;9.746;2024-03-29T05:10:45;99399.44;;;6.14;100.00
4767;BME280;2397;53.576;9.746;2024-03-29T05:13:11;99384.34;;;6.08;100.00
4767;BME280;2397;53.576;9.746;2024-03-29T05:15:37;99385.81;;;6.11;100.00
4767;BME280;2397;53.576;9.746;2024-03-29T05:18:03;99400.88;;;6.09;100.00
4767;BME280;2397;53.576;9.746;2024-03-29T05:20:29;99410.22;;;6.11;100.00
4767;BME280;2397;53.576;9.746;2024-03-29T05:22:55;99389.47;;;6.18;100.00
4767;BME280;2397;53.576;9.746;2024-03-29T05:25:21;99390.78;;;6.22;100.00
4767;BME280;2397;53.576;9.746;2024-03-29T05:27:47;99397.34;;;6.26;100.00
4767;BME280;2397;53.576;9.746;2024-03-29T05:30:13;99417.34;;;6.27;100.00
4767;BME280;2397;53.576;9.746;2024-03-29T05:32:39;99404.94;;;6.37;100.00
4767;BME280;2397;53.576;9.746;2024-03-29T05:35:05;99419.38;;;6.41;100.00
4767;BME280;2397;53.576;9.746;2024-03-29T05:37:31;99418.56;;;6.40;100.00
4767;BME280;2397;53.576;9.746;2024-03-29T05:39:56;99429.84;;;6.41;100.00
4767;BME280;2397;53.576;9.746;2024-03-29T05:42:26;99434.47;;;6.47;100.00
4767;BME280;2397;53.576;9.746;2024-03-29T05:44:52;99422.38;;;6.46;100.00
4767;BME280;2397;53.576;9.746;2024-03-29T05:47:17;99427.94;;;6.51;100.00
4767;BME280;2397;53.576;9.746;2024-03-29T05:49:43;99437.97;;;6.55;100.00
4767;BME280;2397;53.576;9.746;2024-03-29T05:52:09;99429.81;;;6.58;100.00
4767;BME280;2397;53.576;9.746;2024-03-29T05:54:34;99432.56;;;6.57;100.00
4767;BME280;2397;53.576;9.746;2024-03-29T05:57:00;99425.06;;;6.62;100.00
4767;BME280;2397;53.576;9.746;2024-03-29T05:59:26;99428.00;;;6.67;100.00
4767;BME280;2397;53.576;9.746;2024-03-29T06:01:52;99433.09;;;6.68;100.00
4767;BME280;2397;53.576;9.746;2024-03-29T06:04:17;99438.19;;;6.70;100.00
4767;BME280;2397;53.576;9.746;2024-03-29T06:06:46;99436.72;;;6.75;100.00
4767;BME280;2397;53.576;9.746;2024-03-29T06:09:12;99435.94;;;6.83;100.00
4767;BME280;2397;53.576;9.746;2024-03-29T06:11:38;99452.03;;;6.88;100.00
4767;BME280;2397;53.576;9.746;2024-03-29T06:14:03;99450.25;;;6.96;100.00
4767;BME280;2397;53.576;9.746;2024-03-29T06:16:29;99445.81;;;6.97;100.00
4767;BME280;2397;53.576;9.746;2024-03-29T06:19:15;99442.22;;;6.98;100.00
4767;BME280;2397;53.576;9.746;2024-03-29T06:21:40;99452.59;;;7.07;99.90
4767;BME280;2397;53.576;9.746;2024-03-29T06:24:09;99456.69;;;7.10;98.84
4767;BME280;2397;53.576;9.746;2024-03-29T06:26:39;99455.72;;;7.19;99.15
4767;BME280;2397;53.576;9.746;2024-03-29T06:29:05;99453.59;;;7.23;97.56
4767;BME280;2397;53.576;9.746;2024-03-29T06:31:31;99462.47;;;7.22;98.56
4767;BME280;2397;53.576;9.746;2024-03-29T06:34:00;99457.38;;;7.20;98.51
4767;BME280;2397;53.576;9.746;2024-03-29T06:36:26;99457.22;;;7.30;97.77
4767;BME280;2397;53.576;9.746;2024-03-29T06:38:53;99460.84;;;7.29;97.71
4767;BME280;2397;53.576;9.746;2024-03-29T06:41:18;99458.53;;;7.34;98.08
4767;BME280;2397;53.576;9.746;2024-03-29T06:43:44;99464.44;;;7.36;98.22
4767;BME280;2397;53.576;9.746;2024-03-29T06:46:11;99466.91;;;7.37;97.95
4767;BME280;2397;53.576;9.746;2024-03-29T06:48:36;99466.91;;;7.37;98.12
4767;BME280;2397;53.576;9.746;2024-03-29T06:51:03;99468.38;;;7.40;97.29
4767;BME280;2397;53.576;9.746;2024-03-29T06:53:29;99465.94;;;7.38;97.38
4767;BME280;2397;53.576;9.746;2024-03-29T06:55:55;99464.63;;;7.42;97.93
4767;BME280;2397;53.576;9.746;2024-03-29T06:58:23;99459.72;;;7.47;97.48
4767;BME280;2397;53.576;9.746;2024-03-29T07:00:48;99456.91;;;7.49;97.10
4767;BME280;2397;53.576;9.746;2024-03-29T07:03:15;99475.16;;;7.58;96.05
4767;BME280;2397;53.576;9.746;2024-03-29T07:05:42;99482.38;;;7.64;95.88
4767;BME280;2397;53.576;9.746;2024-03-29T07:08:08;99485.31;;;7.69;94.98
4767;BME280;2397;53.576;9.746;2024-03-29T07:10:34;99486.81;;;7.80;94.43
4767;BME280;2397;53.576;9.746;2024-03-29T07:12:59;99492.25;;;7.94;93.16
4767;BME280;2397;53.576;9.746;2024-03-29T07:15:25;99498.78;;;8.06;92.55
4767;BME280;2397;53.576;9.746;2024-03-29T07:17:51;99494.19;;;8.16;91.05
4767;BME280;2397;53.576;9.746;2024-03-29T07:20:17;99497.69;;;8.25;90.26
4767;BME280;2397;53.576;9.746;2024-03-29T07:22:43;99492.91;;;8.28;88.60
4767;BME280;2397;53.576;9.746;2024-03-29T07:25:10;99502.59;;;8.36;89.06
4767;BME280;2397;53.576;9.746;2024-03-29T07:27:36;99508.31;;;8.39;87.67
4767;BME280;2397;53.576;9.746;2024-03-29T07:30:02;99504.19;;;8.45;87.76
4767;BME280;2397;53.576;9.746;2024-03-29T07:32:33;99495.81;;;8.49;87.67
4767;BME280;2397;53.576;9.746;2024-03-29T07:34:59;99510.91;;;8.55;87.25
4767;BME280;2397;53.576;9.746;2024-03-29T07:37:25;99514.69;;;8.61;86.94
4767;BME280;2397;53.576;9.746;2024-03-29T07:39:51;99516.44;;;8.76;85.64
4767;BME280;2397;53.576;9.746;2024-03-29T07:42:16;99519.91;;;8.77;85.54
4767;BME280;2397;53.576;9.746;2024-03-29T07:44:42;99518.72;;;8.87;85.86
4767;BME280;2397;53.576;9.746;2024-03-29T07:47:08;99521.97;;;8.97;85.76
4767;BME280;2397;53.576;9.746;2024-03-29T07:49:33;99532.63;;;9.04;84.50
4767;BME280;2397;53.576;9.746;2024-03-29T07:51:59;99536.09;;;8.96;85.49
4767;BME280;2397;53.576;9.746;2024-03-29T07:54:27;99537.59;;;8.91;86.33
4767;BME280;2397;53.576;9.746;2024-03-29T07:56:53;99548.47;;;8.96;86.93
4767;BME280;2397;53.576;9.746;2024-03-29T07:59:19;99545.84;;;8.96;87.18
4767;BME280;2397;53.576;9.746;2024-03-29T08:01:47;99560.78;;;8.95;87.08
4767;BME280;2397;53.576;9.746;2024-03-29T08:04:13;99557.81;;;8.98;86.39
4767;BME280;2397;53.576;9.746;2024-03-29T08:06:39;99553.84;;;9.02;86.65
4767;BME280;2397;53.576;9.746;2024-03-29T08:09:05;99562.72;;;9.09;86.96
4767;BME280;2397;53.576;9.746;2024-03-29T08:11:31;99558.75;;;9.13;86.93
4767;BME280;2397;53.576;9.746;2024-03-29T08:13:56;99563.34;;;9.19;86.09
4767;BME280;2397;53.576;9.746;2024-03-29T08:16:22;99577.47;;;9.18;86.63
4767;BME280;2397;53.576;9.746;2024-03-29T08:18:48;99564.81;;;9.22;86.56
4767;BME280;2397;53.576;9.746;2024-03-29T08:21:14;99566.28;;;9.24;86.29
4767;BME280;2397;53.576;9.746;2024-03-29T08:23:40;99564.44;;;9.33;86.90
4767;BME280;2397;53.576;9.746;2024-03-29T08:26:07;99559.63;;;9.36;86.94
4767;BME280;2397;53.576;9.746;2024-03-29T08:28:33;99550.41;;;9.40;86.94
4767;BME280;2397;53.576;9.746;2024-03-29T08:31:03;99539.75;;;9.34;87.20
4767;BME280;2397;53.576;9.746;2024-03-29T08:33:29;99536.94;;;9.35;88.09
4767;BME280;2397;53.576;9.746;2024-03-29T08:35:57;99526.69;;;9.48;88.88
4767;BME280;2397;53.576;9.746;2024-03-29T08:38:23;99516.66;;;9.66;89.20
4767;BME280;2397;53.576;9.746;2024-03-29T08:40:49;99508.72;;;9.74;86.66
4767;BME280;2397;53.576;9.746;2024-03-29T08:43:15;99522.84;;;9.81;86.35
4767;BME280;2397;53.576;9.746;2024-03-29T08:45:44;99508.84;;;10.03;84.40
4767;BME280;2397;53.576;9.746;2024-03-29T08:48:09;99514.47;;;10.00;84.79
4767;BME280;2397;53.576;9.746;2024-03-29T08:50:36;99511.97;;;10.07;84.99
4767;BME280;2397;53.576;9.746;2024-03-29T08:53:03;99508.44;;;10.14;84.80
4767;BME280;2397;53.576;9.746;2024-03-29T08:55:32;99493.09;;;10.18;84.50
4767;BME280;2397;53.576;9.746;2024-03-29T08:57:58;99498.84;;;10.36;83.61
4767;BME280;2397;53.576;9.746;2024-03-29T09:00:29;99491.41;;;10.69;83.24
4767;BME280;2397;53.576;9.746;2024-03-29T09:02:55;99499.75;;;11.01;82.09
4767;BME280;2397;53.576;9.746;2024-03-29T09:05:22;99503.44;;;10.86;81.57
4767;BME280;2397;53.576;9.746;2024-03-29T09:07:48;99508.00;;;10.63;83.05
4767;BME280;2397;53.576;9.746;2024-03-29T09:10:14;99502.59;;;10.42;84.86
4767;BME280;2397;53.576;9.746;2024-03-29T09:12:40;99506.53;;;10.75;86.16
4767;BME280;2397;53.576;9.746;2024-03-29T09:15:06;99497.69;;;10.82;83.17
4767;BME280;2397;53.576;9.746;2024-03-29T09:17:36;99476.00;;;11.16;81.54
4767;BME280;2397;53.576;9.746;2024-03-29T09:20:01;99481.03;;;11.11;81.00
4767;BME280;2397;53.576;9.746;2024-03-29T09:22:30;99493.97;;;11.41;81.21
4767;BME280;2397;53.576;9.746;2024-03-29T09:24:55;99495.63;;;11.42;79.91
4767;BME280;2397;53.576;9.746;2024-03-29T09:27:21;99489.22;;;10.87;81.37
4767;BME280;2397;53.576;9.746;2024-03-29T09:29:49;99487.97;;;10.83;83.81
4767;BME280;2397;53.576;9.746;2024-03-29T09:32:15;99496.06;;;10.67;83.97
4767;BME280;2397;53.576;9.746;2024-03-29T09:34:45;99500.66;;;10.35;85.93
4767;BME280;2397;53.576;9.746;2024-03-29T09:37:11;99491.91;;;10.20;86.56
4767;BME280;2397;53.576;9.746;2024-03-29T09:39:37;99500.41;;;10.08;87.78
4767;BME280;2397;53.576;9.746;2024-03-29T09:42:03;99498.81;;;9.99;89.28
4767;BME280;2397;53.576;9.746;2024-03-29T09:44:32;99493.03;;;9.81;90.49
4767;BME280;2397;53.576;9.746;2024-03-29T09:47:03;99486.81;;;9.74;92.51
4767;BME280;2397;53.576;9.746;2024-03-29T09:49:32;99498.88;;;9.68;93.75
4767;BME280;2397;53.576;9.746;2024-03-29T09:51:59;99509.94;;;9.64;94.12
4767;BME280;2397;53.576;9.746;2024-03-29T09:54:31;99504.72;;;9.56;95.59
4767;BME280;2397;53.576;9.746;2024-03-29T09:56:57;99493.56;;;9.54;95.85
4767;BME280;2397;53.576;9.746;2024-03-29T09:59:24;99484.81;;;9.53;96.71
4767;BME280;2397;53.576;9.746;2024-03-29T10:01:54;99466.31;;;9.61;96.87
4767;BME280;2397;53.576;9.746;2024-03-29T10:04:21;99471.44;;;9.85;97.29
4767;BME280;2397;53.576;9.746;2024-03-29T10:06:49;99461.00;;;10.14;95.42
4767;BME280;2397;53.576;9.746;2024-03-29T10:09:20;99454.13;;;10.57;92.42
4767;BME280;2397;53.576;9.746;2024-03-29T10:11:45;99466.91;;;10.89;90.52
4767;BME280;2397;53.576;9.746;2024-03-29T10:14:12;99473.03;;;10.90;89.75
4767;BME280;2397;53.576;9.746;2024-03-29T10:16:38;99465.06;;;11.04;88.49
4767;BME280;2397;53.576;9.746;2024-03-29T10:19:04;99468.00;;;10.95;88.09
4767;BME280;2397;53.576;9.746;2024-03-29T10:21:32;99461.75;;;10.67;89.70
4767;BME280;2397;53.576;9.746;2024-03-29T10:23:57;99464.19;;;10.83;89.75
4767;BME280;2397;53.576;9.746;2024-03-29T10:26:24;99465.78;;;10.63;90.01
4767;BME280;2397;53.576;9.746;2024-03-29T10:28:50;99466.44;;;11.00;89.29
4767;BME280;2397;53.576;9.746;2024-03-29T10:31:17;99458.34;;;11.02;87.99
4767;BME280;2397;53.576;9.746;2024-03-29T10:33:43;99455.06;;;11.14;89.40
4767;BME280;2397;53.576;9.746;2024-03-29T10:36:10;99442.75;;;11.21;89.12
4767;BME280;2397;53.576;9.746;2024-03-29T10:38:38;99424.97;;;10.94;87.39
4767;BME280;2397;53.576;9.746;2024-03-29T10:41:07;99455.13;;;10.71;89.59
4767;BME280;2397;53.576;9.746;2024-03-29T10:43:33;99452.47;;;10.71;90.96
4767;BME280;2397;53.576;9.746;2024-03-29T10:46:02;99462.75;;;10.80;91.05
4767;BME280;2397;53.576;9.746;2024-03-29T10:48:30;99460.03;;;10.59;92.00
4767;BME280;2397;53.576;9.746;2024-03-29T10:50:58;99457.31;;;10.53;91.99
4767;BME280;2397;53.576;9.746;2024-03-29T10:53:24;99461.13;;;10.65;91.93
4767;BME280;2397;53.576;9.746;2024-03-29T10:55:59;99468.31;;;10.71;92.75
4767;BME280;2397;53.576;9.746;2024-03-29T10:58:30;99452.19;;;10.51;92.69
4767;BME280;2397;53.576;9.746;2024-03-29T11:00:57;99446.38;;;10.56;92.19
4767;BME280;2397;53.576;9.746;2024-03-29T11:03:32;99446.63;;;10.90;91.81
4767;BME280;2397;53.576;9.746;2024-03-29T11:06:08;99450.09;;;10.90;90.55
4767;BME280;2397;53.576;9.746;2024-03-29T11:08:38;99460.75;;;11.18;90.19
4767;BME280;2397;53.576;9.746;2024-03-29T11:11:11;99469.28;;;11.13;89.24
4767;BME280;2397;53.576;9.746;2024-03-29T11:14:02;99480.91;;;11.04;89.82
4767;BME280;2397;53.576;9.746;2024-03-29T11:16:29;99476.31;;;10.77;91.47
4767;BME280;2397;53.576;9.746;2024-03-29T11:18:54;99484.22;;;10.77;92.16
4767;BME280;2397;53.576;9.746;2024-03-29T11:21:21;99479.94;;;10.62;93.43
4767;BME280;2397;53.576;9.746;2024-03-29T11:23:51;99481.22;;;10.66;94.23
4767;BME280;2397;53.576;9.746;2024-03-29T11:26:17;99476.56;;;10.82;94.32
4767;BME280;2397;53.576;9.746;2024-03-29T11:28:48;99476.50;;;10.76;93.37
4767;BME280;2397;53.576;9.746;2024-03-29T11:31:15;99479.50;;;10.87;94.18
4767;BME280;2397;53.576;9.746;2024-03-29T11:36:24;99478.50;;;11.74;90.69
4767;BME280;2397;53.576;9.746;2024-03-29T11:38:52;99489.69;;;11.97;87.35
4767;BME280;2397;53.576;9.746;2024-03-29T11:41:20;99487.53;;;12.07;86.50
4767;BME280;2397;53.576;9.746;2024-03-29T11:43:49;99480.19;;;12.02;87.37
4767;BME280;2397;53.576;9.746;2024-03-29T11:46:16;99478.97;;;11.84;88.06
4767;BME280;2397;53.576;9.746;2024-03-29T11:48:42;99469.81;;;11.44;90.31
4767;BME280;2397;53.576;9.746;2024-03-29T11:51:11;99474.56;;;11.34;90.83
4767;BME280;2397;53.576;9.746;2024-03-29T11:53:39;99465.47;;;11.72;90.28
4767;BME280;2397;53.576;9.746;2024-03-29T11:56:05;99467.72;;;12.24;87.68
4767;BME280;2397;53.576;9.746;2024-03-29T11:58:33;99452.97;;;12.36;85.57
4767;BME280;2397;53.576;9.746;2024-03-29T12:01:00;99455.03;;;12.13;85.67
4767;BME280;2397;53.576;9.746;2024-03-29T12:03:28;99471.53;;;12.15;86.76
4767;BME280;2397;53.576;9.746;2024-03-29T12:05:55;99493.22;;;12.31;87.06
4767;BME280;2397;53.576;9.746;2024-03-29T12:08:25;99492.94;;;11.99;86.86
4767;BME280;2397;53.576;9.746;2024-03-29T12:10:52;99478.13;;;12.25;85.93
4767;BME280;2397;53.576;9.746;2024-03-29T12:13:18;99463.34;;;12.10;86.14
4767;BME280;2397;53.576;9.746;2024-03-29T12:15:44;99467.00;;;12.09;85.78
4767;BME280;2397;53.576;9.746;2024-03-29T12:18:09;99471.06;;;12.32;85.28
4767;BME280;2397;53.576;9.746;2024-03-29T12:20:35;99466.16;;;12.63;83.88
4767;BME280;2397;53.576;9.746;2024-03-29T12:23:06;99464.91;;;12.93;81.71
4767;BME280;2397;53.576;9.746;2024-03-29T12:25:33;99460.72;;;13.05;79.93
4767;BME280;2397;53.576;9.746;2024-03-29T12:28:00;99462.53;;;13.65;78.38
4767;BME280;2397;53.576;9.746;2024-03-29T12:30:26;99461.13;;;13.89;76.64
4767;BME280;2397;53.576;9.746;2024-03-29T12:33:13;99464.41;;;13.84;74.70
4767;BME280;2397;53.576;9.746;2024-03-29T12:35:49;99473.97;;;13.79;75.59
4767;BME280;2397;53.576;9.746;2024-03-29T12:38:16;99476.78;;;13.64;74.92
4767;BME280;2397;53.576;9.746;2024-03-29T12:40:44;99469.28;;;13.68;75.95
4767;BME280;2397;53.576;9.746;2024-03-29T12:43:10;99462.16;;;14.14;75.15
4767;BME280;2397;53.576;9.746;2024-03-29T12:45:38;99479.09;;;14.19;74.30
4767;BME280;2397;53.576;9.746;2024-03-29T12:48:15;99476.44;;;14.19;75.21
4767;BME280;2397;53.576;9.746;2024-03-29T12:50:44;99482.34;;;14.08;73.51
4767;BME280;2397;53.576;9.746;2024-03-29T12:53:12;99484.25;;;12.94;78.25
4767;BME280;2397;53.576;9.746;2024-03-29T12:55:40;99479.69;;;12.75;82.72
4767;BME280;2397;53.576;9.746;2024-03-29T12:58:07;99481.25;;;12.63;84.19
4767;BME280;2397;53.576;9.746;2024-03-29T13:00:38;99491.47;;;12.72;84.18
4767;BME280;2397;53.576;9.746;2024-03-29T13:03:05;99510.19;;;12.71;85.38
4767;BME280;2397;53.576;9.746;2024-03-29T13:05:31;99513.16;;;12.89;83.82
4767;BME280;2397;53.576;9.746;2024-03-29T13:08:01;99505.53;;;12.73;82.55
4767;BME280;2397;53.576;9.746;2024-03-29T13:10:28;99513.22;;;12.68;84.33
4767;BME280;2397;53.576;9.746;2024-03-29T13:12:53;99514.28;;;13.01;83.02
4767;BME280;2397;53.576;9.746;2024-03-29T13:15:24;99503.19;;;13.25;81.37
4767;BME280;2397;53.576;9.746;2024-03-29T13:17:51;99495.09;;;13.46;77.67
4767;BME280;2397;53.576;9.746;2024-03-29T13:20:18;99506.91;;;13.43;76.24
4767;BME280;2397;53.576;9.746;2024-03-29T13:22:44;99506.53;;;13.53;77.48
4767;BME280;2397;53.576;9.746;2024-03-29T13:25:15;99495.16;;;13.72;76.80